Skip Navigation LinksHome page > Weather > Current weather Skip Navigation Links

Current Weather

Leland, Ill.

For information only: do not use for flight planning or navigation.
Latest weather
Observation time Tuesday, October 19, 2021 3:55 PM CDT
Local time Tuesday, October 19, 2021 4:05 PM CDT
Flight conditions Visual Meteorological Conditions
Winds
Wind direction West (260°)
Wind speed 3 mph
Visibility 10 mi.
Sky condition
Ceiling unlimited
Sky clear
Temperature 66°F
Dewpoint 36°F
Altimeter 29.99 in.Hg
Derived measurements
Relative humidity 32%
Density altitude 1179 ft.
Remarks
Fully automated report.
Automated weather observing station with precipitation discriminator.
Present weather sensor not operating.
Precipitation sensor not operating.
METAR KE16 192055Z AUTO 26003KT 10SM CLR 19/02 A2999 RMK AO2 PWINO PNO

Settings

Location code

InnerDrive.Weather 4.0.6770.0 Release CLR 4.0.30319.42000
Copyright ©2018 Inner Drive Technology. All rights reserved. Portions Copyright ©1986-2018 David Braverman.

Find weather

Site navigation


Skip Navigation Links

Place info

Page info

PayPal - The safer, easier way to pay online!

Return home.

Copyright ©2021 Inner Drive Technology. Purveyors of fine, hand-crafted computer software. Page printed 2021-10-19T21:05:39 UTC.